createdAt,value
2019-01-19T00:00:47.257Z,24.9
2019-01-19T00:01:37.846Z,24.9
2019-01-19T00:02:27.681Z,24.9
2019-01-19T00:03:17.408Z,24.9
2019-01-19T00:04:07.661Z,24.9
2019-01-19T00:04:58.048Z,24.9
2019-01-19T00:05:47.320Z,24.9
2019-01-19T00:06:37.374Z,24.9
2019-01-19T00:07:28.241Z,24.9
2019-01-19T00:08:18.250Z,24.9
2019-01-19T00:09:08.279Z,24.9
2019-01-19T00:09:58.693Z,24.9
2019-01-19T00:10:48.743Z,24.9
2019-01-19T00:11:38.746Z,24.9
2019-01-19T00:12:28.526Z,24.9
2019-01-19T00:13:19.130Z,24.9
2019-01-19T00:14:08.642Z,24.9
2019-01-19T00:14:59.280Z,24.9
2019-01-19T00:15:48.474Z,24.9
2019-01-19T00:16:38.512Z,24.9
2019-01-19T00:17:27.758Z,24.9
2019-01-19T00:18:19.243Z,24.9
2019-01-19T00:19:09.240Z,24.9
2019-01-19T00:19:59.615Z,24.9
2019-01-19T00:20:49.085Z,24.9
2019-01-19T00:21:39.128Z,24.9
2019-01-19T00:22:29.463Z,24.9
2019-01-19T00:23:19.292Z,24.9
2019-01-19T00:24:08.479Z,24.9
2019-01-19T00:24:59.372Z,24.9
2019-01-19T00:25:49.147Z,24.9
2019-01-19T00:26:38.694Z,24.9
2019-01-19T00:27:29.551Z,24.9
2019-01-19T00:28:18.759Z,24.9
2019-01-19T00:29:09.932Z,24.9
2019-01-19T00:29:59.693Z,24.9
2019-01-19T00:30:49.822Z,24.9
2019-01-19T00:31:39.822Z,24.9
2019-01-19T00:32:29.611Z,24.9
2019-01-19T00:33:19.659Z,24.9
2019-01-19T00:34:10.304Z,24.9
2019-01-19T00:35:00.718Z,24.9
2019-01-19T00:35:49.822Z,24.9
2019-01-19T00:36:40.446Z,24.9
2019-01-19T00:37:29.454Z,24.9
2019-01-19T00:38:20.541Z,24.9
2019-01-19T00:39:10.316Z,24.9
2019-01-19T00:39:59.069Z,24.9
2019-01-19T00:40:50.744Z,24.9
2019-01-19T00:41:40.780Z,24.9
2019-01-19T00:42:30.821Z,24.9
2019-01-19T00:43:20.598Z,24.8
2019-01-19T00:44:09.276Z,24.9
2019-01-19T00:45:00.826Z,24.9
2019-01-19T00:45:50.786Z,24.9
2019-01-19T00:46:41.143Z,24.9
2019-01-19T00:47:30.890Z,24.9
2019-01-19T00:48:21.228Z,24.9
2019-01-19T00:49:11.023Z,24.9
2019-01-19T00:50:01.687Z,24.9
2019-01-19T00:50:50.853Z,24.9
2019-01-19T00:51:41.174Z,24.9
2019-01-19T00:52:31.520Z,24.9
2019-01-19T00:53:21.007Z,24.8
2019-01-19T00:54:11.660Z,24.8
2019-01-19T00:55:01.462Z,24.8
2019-01-19T00:55:50.908Z,24.8
2019-01-19T00:56:41.505Z,24.8
2019-01-19T00:57:31.590Z,24.8
2019-01-19T00:58:21.937Z,24.8
2019-01-19T00:59:12.231Z,24.8
2019-01-19T01:00:01.552Z,24.8
2019-01-19T01:00:51.242Z,24.8
2019-01-19T01:01:42.147Z,24.8
2019-01-19T01:02:32.240Z,24.8
2019-01-19T01:03:21.922Z,24.8
2019-01-19T01:04:11.744Z,24.8
2019-01-19T01:05:02.128Z,24.8
2019-01-19T01:05:52.160Z,24.8
2019-01-19T01:06:42.007Z,24.8
2019-01-19T01:07:32.577Z,24.8
2019-01-19T01:08:22.606Z,24.8
2019-01-19T01:09:12.087Z,24.8
2019-01-19T01:10:02.834Z,24.8
2019-01-19T01:10:52.764Z,24.8
2019-01-19T01:11:42.249Z,24.8
2019-01-19T01:12:32.589Z,24.8
2019-01-19T01:13:23.223Z,24.8
2019-01-19T01:14:13.259Z,24.8
2019-01-19T01:15:03.151Z,24.8
2019-01-19T01:15:52.835Z,24.8
2019-01-19T01:16:42.329Z,24.8
2019-01-19T01:17:33.481Z,24.8
2019-01-19T01:18:22.714Z,24.8
2019-01-19T01:19:13.086Z,24.8
2019-01-19T01:20:02.448Z,24.8
2019-01-19T01:20:52.706Z,24.8
2019-01-19T01:21:43.547Z,24.8
2019-01-19T01:22:32.041Z,24.8
2019-01-19T01:23:23.611Z,24.8
2019-01-19T01:24:12.666Z,24.8
2019-01-19T01:25:03.258Z,24.8
2019-01-19T01:25:53.491Z,24.8
2019-01-19T01:26:42.521Z,24.8
2019-01-19T01:27:32.951Z,24.8
2019-01-19T01:28:22.633Z,24.8
2019-01-19T01:29:13.803Z,24.8
2019-01-19T01:30:03.648Z,24.8
2019-01-19T01:30:53.908Z,24.8
2019-01-19T01:31:43.708Z,24.8
2019-01-19T01:32:32.983Z,24.7
2019-01-19T01:33:23.613Z,24.8
2019-01-19T01:34:13.355Z,24.8
2019-01-19T01:35:03.790Z,24.7
2019-01-19T01:35:54.313Z,24.7
2019-01-19T01:36:43.760Z,24.8
2019-01-19T01:37:33.560Z,24.7
2019-01-19T01:38:24.203Z,24.8
2019-01-19T01:39:13.410Z,24.8
2019-01-19T01:40:03.230Z,24.8
2019-01-19T01:40:54.832Z,24.7
2019-01-19T01:41:44.392Z,24.7
2019-01-19T01:42:34.440Z,24.7
2019-01-19T01:43:24.562Z,24.7
2019-01-19T01:44:14.854Z,24.7
2019-01-19T01:45:04.917Z,24.7
2019-01-19T01:45:54.045Z,24.7
2019-01-19T01:46:44.930Z,24.7
2019-01-19T01:47:35.329Z,24.7
2019-01-19T01:48:25.057Z,24.7
2019-01-19T01:49:15.390Z,24.7
2019-01-19T01:50:05.434Z,24.7
2019-01-19T01:50:55.759Z,24.7
2019-01-19T01:51:44.719Z,24.7
2019-01-19T01:52:35.323Z,24.7
2019-01-19T01:53:25.177Z,24.7
2019-01-19T01:54:15.449Z,24.7
2019-01-19T01:55:05.519Z,24.7
2019-01-19T01:55:55.842Z,24.7
2019-01-19T01:56:45.891Z,24.7
2019-01-19T01:57:35.934Z,24.7
2019-01-19T01:58:25.459Z,24.7
2019-01-19T01:59:16.076Z,24.7
2019-01-19T02:00:06.548Z,24.7
2019-01-19T02:00:56.442Z,24.7
2019-01-19T02:01:46.237Z,24.7
2019-01-19T02:02:36.307Z,24.7
2019-01-19T02:03:26.118Z,24.7
2019-01-19T02:04:16.686Z,24.7
2019-01-19T02:05:06.218Z,24.8
2019-01-19T02:05:56.231Z,24.8
2019-01-19T02:06:46.010Z,24.8
2019-01-19T02:07:36.897Z,24.8
2019-01-19T02:08:26.693Z,24.8
2019-01-19T02:09:16.470Z,24.8
2019-01-19T02:10:07.090Z,24.8
2019-01-19T02:10:56.861Z,24.9
2019-01-19T02:11:46.418Z,24.9
2019-01-19T02:12:36.134Z,24.9
2019-01-19T02:13:26.263Z,24.9
2019-01-19T02:14:16.258Z,25
2019-01-19T02:15:06.027Z,25.1
2019-01-19T02:15:56.930Z,25.1
2019-01-19T02:16:47.015Z,25.1
2019-01-19T02:17:37.308Z,25.2
2019-01-19T02:18:27.390Z,25.3
2019-01-19T02:19:16.871Z,25.3
2019-01-19T02:20:06.642Z,25.4
2019-01-19T02:20:57.265Z,25.5
2019-01-19T02:21:46.767Z,25.6
2019-01-19T02:22:37.367Z,25.7
2019-01-19T02:23:27.760Z,25.8
2019-01-19T02:24:17.232Z,25.8
2019-01-19T02:25:07.812Z,25.9
2019-01-19T02:25:57.881Z,26
2019-01-19T02:26:47.980Z,26.1
2019-01-19T02:27:37.159Z,26.2
2019-01-19T02:28:27.497Z,26.3
2019-01-19T02:29:18.132Z,26.4
2019-01-19T02:30:08.010Z,26.5
2019-01-19T02:30:58.557Z,26.6
2019-01-19T02:31:47.203Z,26.8
2019-01-19T02:32:38.172Z,26.8
2019-01-19T02:33:28.409Z,26.9
2019-01-19T02:34:17.894Z,27
2019-01-19T02:35:08.539Z,27.1
2019-01-19T02:35:57.774Z,27.2
2019-01-19T02:36:48.986Z,27.3
2019-01-19T02:37:39.003Z,27.4
2019-01-19T02:38:28.777Z,27.5
2019-01-19T02:39:18.561Z,27.6
2019-01-19T02:40:08.106Z,27.7
2019-01-19T02:40:58.718Z,27.8
2019-01-19T02:42:38.883Z,27.9
2019-01-19T02:43:28.631Z,28.1
2019-01-19T02:44:18.205Z,28.2
2019-01-19T02:45:09.056Z,28.3
2019-01-19T02:45:59.300Z,28.4
2019-01-19T02:46:48.791Z,28.5
2019-01-19T02:47:39.628Z,28.6
2019-01-19T02:48:29.448Z,28.7
2019-01-19T02:49:19.208Z,28.8
2019-01-19T02:50:08.638Z,28.9
2019-01-19T02:50:59.111Z,29
2019-01-19T02:51:48.704Z,29.1
2019-01-19T02:52:39.260Z,29.3
2019-01-19T02:53:28.853Z,29.3
2019-01-19T02:54:18.801Z,29.4
2019-01-19T02:55:11.508Z,29.6
2019-01-19T02:55:59.599Z,29.7
2019-01-19T02:56:49.018Z,29.8
2019-01-19T02:57:39.350Z,29.9
2019-01-19T02:58:29.660Z,30
2019-01-19T02:59:19.158Z,30.1
2019-01-19T03:00:10.262Z,30.2
2019-01-19T03:00:59.822Z,30.3
2019-01-19T03:01:49.104Z,30.4
2019-01-19T03:02:40.148Z,30.5
2019-01-19T03:03:30.527Z,30.6
2019-01-19T03:04:20.052Z,30.8
2019-01-19T03:05:10.444Z,30.8
2019-01-19T03:08:43.012Z,31.3
2019-01-19T03:09:33.512Z,31.4
2019-01-19T03:10:23.232Z,31.6
2019-01-19T03:11:13.593Z,31.7
2019-01-19T03:12:03.097Z,31.8
2019-01-19T03:12:53.141Z,31.9
2019-01-19T03:13:43.174Z,32
2019-01-19T03:14:33.816Z,32.2
2019-01-19T03:15:23.929Z,32.3
2019-01-19T03:16:13.691Z,32.4
2019-01-19T03:17:03.764Z,32.6
2019-01-19T03:17:54.011Z,32.6
2019-01-19T03:18:43.939Z,32.8
2019-01-19T03:19:33.571Z,32.9
2019-01-19T03:20:24.208Z,33
2019-01-19T03:21:14.241Z,33.1
2019-01-19T03:22:03.993Z,33.2
2019-01-19T03:22:54.344Z,33.3
2019-01-19T03:23:44.631Z,33.4
2019-01-19T03:24:34.702Z,33.6
2019-01-19T03:25:24.582Z,33.6
2019-01-19T03:26:14.568Z,33.8
2019-01-19T03:27:04.916Z,33.9
2019-01-19T03:27:54.936Z,33.9
2019-01-19T03:28:45.320Z,34.1
2019-01-19T03:29:35.121Z,34.2
2019-01-19T03:30:25.770Z,34.3
2019-01-19T03:31:15.285Z,34.4
2019-01-19T03:32:05.407Z,34.4
2019-01-19T03:32:55.720Z,34.5
2019-01-19T03:33:45.043Z,34.6
2019-01-19T03:34:35.405Z,34.6
2019-01-19T03:35:25.432Z,34.6
2019-01-19T03:36:15.488Z,34.7
2019-01-19T03:37:05.825Z,34.8
2019-01-19T03:37:55.063Z,34.8
2019-01-19T03:38:45.666Z,34.8
2019-01-19T03:39:35.435Z,34.8
2019-01-19T03:40:25.875Z,34.8
2019-01-19T03:41:15.560Z,34.8
2019-01-19T03:42:05.638Z,34.9
2019-01-19T03:42:56.008Z,34.9
2019-01-19T03:43:45.755Z,34.9
2019-01-19T03:44:35.835Z,34.9
2019-01-19T03:45:26.382Z,34.9
2019-01-19T03:46:16.492Z,34.9
2019-01-19T03:47:05.391Z,34.9
2019-01-19T03:47:56.051Z,35
2019-01-19T03:48:46.324Z,35
2019-01-19T03:49:36.105Z,35
2019-01-19T03:50:26.173Z,35
2019-01-19T03:51:16.804Z,35
2019-01-19T03:52:06.027Z,35
2019-01-19T03:52:56.615Z,35
2019-01-19T03:53:46.682Z,35.1
2019-01-19T03:54:38.617Z,35.1
2019-01-19T03:55:26.864Z,35.1
2019-01-19T03:56:16.842Z,35.1
2019-01-19T03:57:07.188Z,35.1
2019-01-19T03:57:56.972Z,35.1
2019-01-19T03:58:46.219Z,35.1
2019-01-19T03:59:36.801Z,35.1
2019-01-19T04:00:26.638Z,35
2019-01-19T04:01:16.702Z,35.1
2019-01-19T04:02:06.773Z,35.1
2019-01-19T04:02:57.074Z,35.1
2019-01-19T04:03:47.151Z,35.1
2019-01-19T04:04:36.901Z,35.1
2019-01-19T04:05:27.471Z,35.1
2019-01-19T04:06:18.455Z,35.1
2019-01-19T04:07:07.292Z,35.1
2019-01-19T04:07:57.338Z,35.1
2019-01-19T04:08:48.018Z,35.1
2019-01-19T04:09:37.752Z,35.1
2019-01-19T04:10:27.423Z,35.1
2019-01-19T04:11:17.565Z,35.1
2019-01-19T04:12:07.903Z,35.1
2019-01-19T04:12:57.995Z,35.1
2019-01-19T04:13:48.097Z,35.1
2019-01-19T04:14:37.663Z,35.1
2019-01-19T04:15:28.142Z,35.1
2019-01-19T04:16:17.663Z,35.1
2019-01-19T04:17:07.947Z,35.1
2019-01-19T04:17:58.389Z,35.1
2019-01-19T04:18:48.058Z,35.1
2019-01-19T04:19:38.466Z,35.1
2019-01-19T04:20:28.828Z,35.1
2019-01-19T04:21:18.352Z,35.1
2019-01-19T04:22:08.072Z,35.1
2019-01-19T04:22:58.717Z,35.1
2019-01-19T04:23:48.145Z,35.1
2019-01-19T04:24:38.587Z,35.1
2019-01-19T04:25:28.664Z,35.1
2019-01-19T04:26:19.216Z,35.1
2019-01-19T04:27:09.205Z,35.1
2019-01-19T04:27:59.035Z,35.1
2019-01-19T04:28:49.402Z,35.1
2019-01-19T04:29:39.126Z,35.1
2019-01-19T04:30:28.877Z,35.1
2019-01-19T04:31:18.449Z,35.1
2019-01-19T04:32:09.139Z,35.1
2019-01-19T04:32:58.787Z,35.1
2019-01-19T04:33:49.675Z,35.1
2019-01-19T04:34:39.723Z,35.1
2019-01-19T04:35:29.827Z,35.1
2019-01-19T04:36:27.146Z,35.1
2019-01-19T04:37:09.242Z,35.1
2019-01-19T04:37:59.414Z,35.1
2019-01-19T04:38:50.046Z,35.1
2019-01-19T04:39:39.844Z,35.1
2019-01-19T04:40:29.881Z,35.1
2019-01-19T04:41:19.734Z,35.1
2019-01-19T04:42:10.365Z,35.1
2019-01-19T04:43:00.299Z,35.1
2019-01-19T04:43:50.081Z,35.1
2019-01-19T04:44:40.171Z,35.1
2019-01-19T04:45:30.473Z,35.1
2019-01-19T04:46:20.048Z,35.1
2019-01-19T04:47:10.066Z,35.1
2019-01-19T04:48:00.456Z,35.1
2019-01-19T04:48:50.677Z,35.1
2019-01-19T04:49:40.738Z,35.1
2019-01-19T04:50:30.806Z,35.1
2019-01-19T04:51:21.000Z,35.1
2019-01-19T04:52:10.378Z,35.1
2019-01-19T04:53:00.143Z,35.1
2019-01-19T04:53:50.772Z,35.1
2019-01-19T04:54:40.584Z,35
2019-01-19T04:55:30.913Z,35.1
2019-01-19T04:56:21.216Z,35.1
2019-01-19T04:57:11.299Z,35.1
2019-01-19T04:58:01.063Z,35
2019-01-19T04:58:50.848Z,35.1
2019-01-19T04:59:41.428Z,35.1
2019-01-19T05:00:30.950Z,35.1
2019-01-19T05:01:21.607Z,35
2019-01-19T05:02:11.319Z,35
2019-01-19T05:03:01.462Z,35
2019-01-19T05:03:50.974Z,35
2019-01-19T05:04:41.833Z,35
2019-01-19T05:05:31.387Z,35
2019-01-19T05:06:32.041Z,35
2019-01-19T05:07:11.448Z,35
2019-01-19T05:08:01.243Z,35
2019-01-19T05:08:51.576Z,35
2019-01-19T05:09:41.625Z,35
2019-01-19T05:10:31.694Z,35
2019-01-19T05:11:21.759Z,35
2019-01-19T05:12:11.515Z,35
2019-01-19T05:13:01.782Z,35
2019-01-19T05:13:52.166Z,35
2019-01-19T05:14:41.923Z,35
2019-01-19T05:15:31.983Z,35
2019-01-19T05:16:22.260Z,35
2019-01-19T05:17:12.360Z,34.9
2019-01-19T05:18:01.386Z,35
2019-01-19T05:18:51.407Z,34.9
2019-01-19T05:19:42.304Z,34.9
2019-01-19T05:20:31.807Z,34.9
2019-01-19T05:21:21.913Z,35
2019-01-19T05:22:12.762Z,35
2019-01-19T05:23:03.009Z,34.9
2019-01-19T05:23:52.775Z,34.9
2019-01-19T05:24:42.347Z,34.9
2019-01-19T05:25:32.698Z,34.9
2019-01-19T05:26:21.923Z,34.9
2019-01-19T05:27:12.528Z,34.9
2019-01-19T05:28:02.578Z,34.9
2019-01-19T05:28:53.113Z,34.9
2019-01-19T05:29:43.206Z,34.9
2019-01-19T05:30:33.230Z,34.9
2019-01-19T05:31:23.332Z,34.9
2019-01-19T05:32:13.342Z,34.9
2019-01-19T05:33:03.147Z,34.9
2019-01-19T05:33:53.174Z,34.9
2019-01-19T05:34:43.817Z,34.9
2019-01-19T05:35:33.559Z,34.9
2019-01-19T05:36:23.186Z,34.9
2019-01-19T05:37:13.199Z,34.9
2019-01-19T05:38:05.111Z,34.9
2019-01-19T05:38:53.094Z,34.9
2019-01-19T05:39:43.645Z,34.9
2019-01-19T05:40:33.419Z,34.9
2019-01-19T05:41:23.771Z,34.9
2019-01-19T05:42:14.358Z,34.9
2019-01-19T05:43:03.308Z,34.9
2019-01-19T05:43:53.946Z,34.9
2019-01-19T05:44:44.764Z,34.9
2019-01-19T05:45:34.008Z,34.9
2019-01-19T05:46:27.361Z,34.9
2019-01-19T05:47:14.660Z,34.9
2019-01-19T05:48:04.783Z,34.9
2019-01-19T05:48:54.483Z,34.9
2019-01-19T05:49:44.819Z,34.9
2019-01-19T05:50:34.908Z,34.9
2019-01-19T05:51:24.088Z,34.9
2019-01-19T05:52:14.250Z,34.9
2019-01-19T05:53:04.550Z,34.9
2019-01-19T05:53:54.638Z,34.9
2019-01-19T05:54:44.675Z,34.9
2019-01-19T05:55:34.652Z,34.8
2019-01-19T05:56:24.588Z,34.9
2019-01-19T05:57:15.365Z,34.9
2019-01-19T05:58:05.100Z,34.8
2019-01-19T05:58:54.603Z,34.8
2019-01-19T05:59:45.477Z,34.8
2019-01-19T06:00:35.324Z,34.8
2019-01-19T06:01:25.590Z,34.8
2019-01-19T06:02:15.663Z,34.8
2019-01-19T06:03:05.509Z,34.8
2019-01-19T06:03:55.806Z,34.8
2019-01-19T06:04:45.615Z,34.8
2019-01-19T06:06:51.889Z,34.8
2019-01-19T06:07:32.942Z,34.8
2019-01-19T06:08:23.560Z,34.8
2019-01-19T06:09:13.615Z,34.8
2019-01-19T06:10:03.102Z,34.8
2019-01-19T06:10:53.432Z,34.8
2019-01-19T06:11:43.512Z,34.8
2019-01-19T06:12:33.530Z,34.8
2019-01-19T06:13:23.636Z,34.8
2019-01-19T06:14:14.199Z,34.8
2019-01-19T06:15:03.737Z,34.8
2019-01-19T06:15:53.776Z,34.8
2019-01-19T06:16:43.579Z,34.8
2019-01-19T06:17:33.052Z,34.8
2019-01-19T06:18:23.914Z,34.8
2019-01-19T06:19:14.559Z,34.8
2019-01-19T06:20:04.421Z,34.8
2019-01-19T06:20:54.082Z,34.8
2019-01-19T06:21:43.311Z,34.8
2019-01-19T06:22:33.660Z,34.7
2019-01-19T06:23:24.636Z,34.8
2019-01-19T06:24:14.326Z,34.7
2019-01-19T06:25:04.841Z,34.8
2019-01-19T06:25:54.441Z,34.8
2019-01-19T06:26:43.936Z,34.7
2019-01-19T06:27:34.546Z,34.7
2019-01-19T06:28:24.391Z,34.7
2019-01-19T06:29:15.033Z,34.7
2019-01-19T06:30:04.463Z,34.7
2019-01-19T06:30:54.798Z,34.7
2019-01-19T06:31:44.630Z,34.7
2019-01-19T06:32:34.978Z,34.7
2019-01-19T06:33:24.891Z,34.7
2019-01-19T06:34:14.238Z,34.7
2019-01-19T06:35:04.082Z,34.6
2019-01-19T06:35:55.380Z,34.7
2019-01-19T06:36:45.282Z,34.7
2019-01-19T06:37:35.273Z,34.6
2019-01-19T06:38:25.102Z,34.6
2019-01-19T06:39:15.428Z,34.6
2019-01-19T06:40:05.446Z,34.6
2019-01-19T06:40:56.018Z,34.6
2019-01-19T06:41:45.497Z,34.6
2019-01-19T06:42:35.575Z,34.6
2019-01-19T06:43:25.895Z,34.6
2019-01-19T06:44:15.724Z,34.6
2019-01-19T06:45:05.295Z,34.6
2019-01-19T06:45:55.491Z,34.6
2019-01-19T06:46:46.377Z,34.6
2019-01-19T06:47:35.874Z,34.6
2019-01-19T06:48:25.380Z,34.6
2019-01-19T06:49:15.737Z,34.6
2019-01-19T06:50:06.171Z,34.6
2019-01-19T06:50:56.394Z,34.6
2019-01-19T06:51:46.469Z,34.6
2019-01-19T06:52:35.942Z,34.6
2019-01-19T06:53:26.859Z,34.6
2019-01-19T06:54:15.811Z,34.6
2019-01-19T06:55:06.404Z,34.6
2019-01-19T06:55:56.726Z,34.6
2019-01-19T06:56:46.039Z,34.6
2019-01-19T06:57:36.081Z,34.6
2019-01-19T06:58:27.179Z,34.6
2019-01-19T06:59:23.205Z,34.6
2019-01-19T07:00:06.461Z,34.6
2019-01-19T07:00:57.066Z,34.6
2019-01-19T07:01:47.144Z,34.6
2019-01-19T07:02:36.608Z,34.6
2019-01-19T07:03:27.311Z,34.5
2019-01-19T07:04:17.034Z,34.5
2019-01-19T07:06:43.830Z,34.5
2019-01-19T07:07:33.459Z,34.5
2019-01-19T07:08:25.199Z,34.5
2019-01-19T07:09:13.593Z,34.5
2019-01-19T07:10:03.905Z,34.5
2019-01-19T07:10:53.955Z,34.5
2019-01-19T07:11:43.810Z,34.5
2019-01-19T07:12:34.070Z,34.5
2019-01-19T07:13:23.880Z,34.5
2019-01-19T07:14:13.897Z,34.4
2019-01-19T07:15:04.255Z,34.5
2019-01-19T07:15:54.380Z,34.5
2019-01-19T07:16:44.117Z,34.4
2019-01-19T07:17:34.439Z,34.5
2019-01-19T07:18:24.177Z,34.4
2019-01-19T07:19:14.504Z,34.4
2019-01-19T07:20:03.542Z,34.4
2019-01-19T07:20:54.208Z,34.4
2019-01-19T07:21:44.759Z,34.4
2019-01-19T07:22:34.772Z,34.4
2019-01-19T07:23:24.545Z,34.4
2019-01-19T07:24:14.922Z,34.4
2019-01-19T07:25:04.862Z,34.4
2019-01-19T07:25:54.757Z,34.4
2019-01-19T07:26:44.742Z,34.4
2019-01-19T07:27:35.081Z,34.4
2019-01-19T07:28:24.602Z,34.4
2019-01-19T07:29:15.192Z,34.4
2019-01-19T07:30:05.289Z,34.4
2019-01-19T07:30:55.019Z,34.3
2019-01-19T07:31:45.376Z,34.3
2019-01-19T07:32:35.134Z,34.3
2019-01-19T07:33:25.011Z,34.3
2019-01-19T07:34:14.992Z,34.3
2019-01-19T07:35:05.420Z,34.3
2019-01-19T07:35:55.414Z,34.3
2019-01-19T07:36:45.516Z,34.4
2019-01-19T07:37:35.752Z,34.4
2019-01-19T07:38:25.877Z,34.4
2019-01-19T07:39:15.866Z,34.4
2019-01-19T07:40:05.718Z,34.4
2019-01-19T07:40:55.149Z,34.4
2019-01-19T07:41:46.056Z,34.4
2019-01-19T07:42:37.416Z,34.3
2019-01-19T07:43:25.621Z,34.3
2019-01-19T07:44:16.203Z,34.3
2019-01-19T07:45:06.359Z,34.3
2019-01-19T07:45:55.831Z,34.3
2019-01-19T07:46:46.121Z,34.3
2019-01-19T07:47:37.863Z,34.3
2019-01-19T07:48:26.186Z,34.3
2019-01-19T07:49:16.523Z,34.3
2019-01-19T07:50:06.367Z,34.3
2019-01-19T07:50:56.405Z,34.3
2019-01-19T07:51:46.723Z,34.2
2019-01-19T07:52:36.805Z,34.3
2019-01-19T07:53:26.838Z,34.2
2019-01-19T07:54:16.600Z,34.2
2019-01-19T07:55:06.655Z,34.2
2019-01-19T07:55:56.750Z,34.2
2019-01-19T07:56:47.046Z,34.2
2019-01-19T07:57:37.255Z,34.2
2019-01-19T07:58:27.135Z,34.2
2019-01-19T07:59:16.937Z,34.2
2019-01-19T08:00:57.048Z,34.1
2019-01-19T08:01:47.387Z,34.1
2019-01-19T08:02:36.039Z,34.1
2019-01-19T08:03:27.217Z,34.1
2019-01-19T08:04:17.548Z,34.1
2019-01-19T08:05:07.052Z,34.1
2019-01-19T08:05:57.667Z,34.1
2019-01-19T08:06:47.134Z,34.1
2019-01-19T08:07:37.790Z,34.1
2019-01-19T08:08:29.465Z,34.1
2019-01-19T08:09:17.627Z,34.1
2019-01-19T08:10:07.389Z,34.1
2019-01-19T08:10:57.446Z,34.1
2019-01-19T08:11:48.069Z,34.1
2019-01-19T08:12:37.847Z,34.1
2019-01-19T08:13:27.934Z,34.1
2019-01-19T08:14:17.671Z,34.1
2019-01-19T08:15:08.029Z,34.1
2019-01-19T08:15:58.113Z,34
2019-01-19T08:16:48.402Z,34
2019-01-19T08:17:38.176Z,34
2019-01-19T08:18:28.241Z,34
2019-01-19T08:19:18.011Z,34
2019-01-19T08:20:08.616Z,33.9
2019-01-19T08:20:58.396Z,33.9
2019-01-19T08:21:48.736Z,33.9
2019-01-19T08:22:38.581Z,34
2019-01-19T08:23:30.336Z,33.9
2019-01-19T08:24:18.628Z,33.9
2019-01-19T08:25:08.953Z,33.9
2019-01-19T08:25:59.010Z,33.9
2019-01-19T08:26:49.093Z,33.9
2019-01-19T08:27:38.565Z,33.9
2019-01-19T08:28:29.205Z,33.9
2019-01-19T08:29:20.855Z,33.9
2019-01-19T08:30:09.030Z,33.9
2019-01-19T08:30:59.091Z,33.9
2019-01-19T08:31:49.423Z,33.9
2019-01-19T08:32:39.500Z,33.9
2019-01-19T08:33:29.302Z,33.9
2019-01-19T08:34:19.610Z,33.9
2019-01-19T08:35:09.682Z,33.9
2019-01-19T08:35:58.858Z,33.8
2019-01-19T08:36:49.743Z,33.8
2019-01-19T08:37:39.795Z,33.9
2019-01-19T08:38:29.302Z,33.8
2019-01-19T08:39:21.124Z,33.8
2019-01-19T08:40:09.975Z,33.8
2019-01-19T08:41:01.089Z,33.8
2019-01-19T08:41:50.115Z,33.8
2019-01-19T08:42:39.582Z,33.8
2019-01-19T08:43:30.211Z,33.8
2019-01-19T08:44:19.687Z,33.8
2019-01-19T08:45:10.329Z,33.8
2019-01-19T08:45:59.811Z,33.8
2019-01-19T08:46:50.499Z,33.8
2019-01-19T08:47:40.484Z,33.8
2019-01-19T08:48:30.584Z,33.8
2019-01-19T08:49:20.371Z,33.8
2019-01-19T08:50:10.659Z,33.8
2019-01-19T08:51:00.694Z,33.8
2019-01-19T08:51:50.775Z,33.8
2019-01-19T08:52:40.816Z,33.7
2019-01-19T08:53:30.871Z,33.7
2019-01-19T08:54:20.711Z,33.7
2019-01-19T08:55:10.711Z,33.7
2019-01-19T08:56:00.759Z,33.7
2019-01-19T08:56:51.113Z,33.7
2019-01-19T08:57:41.158Z,33.7
2019-01-19T08:58:30.661Z,33.7
2019-01-19T08:59:21.261Z,33.6
2019-01-19T09:00:10.771Z,33.7
2019-01-19T09:01:01.391Z,33.6
2019-01-19T09:01:51.496Z,33.6
2019-01-19T09:02:41.502Z,33.7
2019-01-19T09:03:31.278Z,33.6
2019-01-19T09:04:21.675Z,33.6
2019-01-19T09:05:11.376Z,33.6
2019-01-19T09:06:01.770Z,33.6
2019-01-19T09:06:51.783Z,33.6
2019-01-19T09:07:41.084Z,33.6
2019-01-19T09:08:31.938Z,33.6
2019-01-19T09:09:21.667Z,33.6
2019-01-19T09:10:11.726Z,33.6
2019-01-19T09:11:01.573Z,33.6
2019-01-19T09:11:52.121Z,33.6
2019-01-19T09:12:41.625Z,33.6
2019-01-19T09:13:32.531Z,33.6
2019-01-19T09:14:22.273Z,33.6
2019-01-19T09:15:12.362Z,33.6
2019-01-19T09:16:02.413Z,33.6
2019-01-19T09:16:52.250Z,33.6
2019-01-19T09:17:42.522Z,33.6
2019-01-19T09:18:32.290Z,33.6
2019-01-19T09:19:22.645Z,33.5
2019-01-19T09:20:12.670Z,33.5
2019-01-19T09:21:02.179Z,33.5
2019-01-19T09:21:53.860Z,33.5
2019-01-19T09:22:42.642Z,33.5
2019-01-19T09:23:32.651Z,33.5
2019-01-19T09:24:22.987Z,33.5
2019-01-19T09:25:12.762Z,33.5
2019-01-19T09:26:02.851Z,33.5
2019-01-19T09:26:52.568Z,33.4
2019-01-19T09:27:42.684Z,33.4
2019-01-19T09:28:34.744Z,33.4
2019-01-19T09:29:22.752Z,33.4
2019-01-19T09:30:12.807Z,33.4
2019-01-19T09:31:03.469Z,33.4
2019-01-19T09:31:53.241Z,33.4
2019-01-19T09:32:43.257Z,33.4
2019-01-19T09:33:33.607Z,33.4
2019-01-19T09:34:23.371Z,33.4
2019-01-19T09:35:13.703Z,33.4
2019-01-19T09:36:03.759Z,33.4
2019-01-19T09:36:53.541Z,33.4
2019-01-19T09:37:48.894Z,33.4
2019-01-19T09:38:33.714Z,33.4
2019-01-19T09:39:23.978Z,33.4
2019-01-19T09:40:15.318Z,33.4
2019-01-19T09:41:03.838Z,33.4
2019-01-19T09:41:53.876Z,33.4
2019-01-19T09:42:43.648Z,33.4
2019-01-19T09:43:34.055Z,33.3
2019-01-19T09:44:24.336Z,33.4
2019-01-19T09:45:14.379Z,33.3
2019-01-19T09:46:04.431Z,33.3
2019-01-19T09:46:53.948Z,33.3
2019-01-19T09:47:44.536Z,33.3
2019-01-19T09:48:34.610Z,33.4
2019-01-19T09:49:24.680Z,33.3
2019-01-19T09:50:14.428Z,33.3
2019-01-19T09:51:04.510Z,33.4
2019-01-19T09:51:54.563Z,33.3
2019-01-19T09:52:44.947Z,33.3
2019-01-19T09:53:34.950Z,33.3
2019-01-19T09:54:26.423Z,33.3
2019-01-19T09:55:14.817Z,33.3
2019-01-19T09:56:05.170Z,33.3
2019-01-19T09:56:55.195Z,33.3
2019-01-19T09:57:45.242Z,33.3
2019-01-19T09:58:35.284Z,33.3
2019-01-19T09:59:25.342Z,33.3
2019-01-19T10:00:15.437Z,33.3
2019-01-19T10:01:05.247Z,33.3
2019-01-19T10:01:55.515Z,33.3
2019-01-19T10:02:45.056Z,33.3
2019-01-19T10:03:35.627Z,33.3
2019-01-19T10:04:25.118Z,33.3
2019-01-19T10:05:15.756Z,33.3
2019-01-19T10:07:50.487Z,33.2
2019-01-19T10:08:33.001Z,33.3
2019-01-19T10:09:22.811Z,33.2
2019-01-19T10:10:13.457Z,33.2
2019-01-19T10:11:03.747Z,33.2
2019-01-19T10:11:53.864Z,33.2
2019-01-19T10:12:43.616Z,33.2
2019-01-19T10:13:33.412Z,33.2
2019-01-19T10:14:23.727Z,33.2
2019-01-19T10:15:13.754Z,33.2
2019-01-19T10:16:03.541Z,33.2
2019-01-19T10:16:53.868Z,33.2
2019-01-19T10:17:43.929Z,33.2
2019-01-19T10:18:33.721Z,33.2
2019-01-19T10:19:24.046Z,33.2
2019-01-19T10:20:14.136Z,33.1
2019-01-19T10:21:04.483Z,33.1
2019-01-19T10:21:54.475Z,33.1
2019-01-19T10:22:44.590Z,33.1
2019-01-19T10:23:34.028Z,33.1
2019-01-19T10:24:24.670Z,33.1
2019-01-19T10:25:14.708Z,33.1
2019-01-19T10:26:04.508Z,33.1
2019-01-19T10:26:54.857Z,33.1
2019-01-19T10:27:44.321Z,33.1
2019-01-19T10:28:34.938Z,33.1
2019-01-19T10:29:23.978Z,33.1
2019-01-19T10:30:14.541Z,33.1
2019-01-19T10:31:04.850Z,33.2
2019-01-19T10:31:54.613Z,33.2
2019-01-19T10:32:44.734Z,33.2
2019-01-19T10:33:34.750Z,33.2
2019-01-19T10:34:25.342Z,33.2
2019-01-19T10:35:14.850Z,33.2
2019-01-19T10:36:04.595Z,33.2
2019-01-19T10:36:55.509Z,33.2
2019-01-19T10:37:45.283Z,33.2
2019-01-19T10:38:34.857Z,33.1
2019-01-19T10:39:25.020Z,33.1
2019-01-19T10:40:15.182Z,33.1
2019-01-19T10:41:05.552Z,33.1
2019-01-19T10:41:55.295Z,33.1
2019-01-19T10:42:45.355Z,33.1
2019-01-19T10:43:35.694Z,33.1
2019-01-19T10:44:25.554Z,33.1
2019-01-19T10:45:16.096Z,33.1
2019-01-19T10:46:05.574Z,33.1
2019-01-19T10:46:55.679Z,33
2019-01-19T10:47:45.970Z,33
2019-01-19T10:48:36.014Z,33
2019-01-19T10:49:25.794Z,33
2019-01-19T10:50:16.189Z,33
2019-01-19T10:51:06.469Z,33
2019-01-19T10:52:03.062Z,33
2019-01-19T10:52:46.576Z,32.9
2019-01-19T10:53:36.629Z,32.9
2019-01-19T10:54:26.466Z,32.9
2019-01-19T10:55:15.414Z,32.9
2019-01-19T10:56:06.410Z,33
2019-01-19T10:56:56.101Z,32.9
2019-01-19T10:57:45.883Z,32.9
2019-01-19T10:58:35.926Z,33
2019-01-19T10:59:26.003Z,33
2019-01-19T11:00:16.600Z,33
2019-01-19T11:01:06.126Z,33
2019-01-19T11:01:57.208Z,33.1
2019-01-19T11:02:46.770Z,33.1
2019-01-19T11:03:37.031Z,33.1
2019-01-19T11:04:26.808Z,33.1
2019-01-19T11:05:17.428Z,33.1
2019-01-19T11:06:07.580Z,33.1
2019-01-19T11:06:57.557Z,33.1
2019-01-19T11:07:47.313Z,33.1
2019-01-19T11:08:37.111Z,33.1
2019-01-19T11:09:27.183Z,33.1
2019-01-19T11:10:17.545Z,33.1
2019-01-19T11:11:07.832Z,33.1
2019-01-19T11:11:57.868Z,33.1
2019-01-19T11:12:47.388Z,33.1
2019-01-19T11:13:37.690Z,33.1
2019-01-19T11:14:27.222Z,33.1
2019-01-19T11:15:17.895Z,33.1
2019-01-19T11:16:08.177Z,33.1
2019-01-19T11:16:57.403Z,33.1
2019-01-19T11:17:47.546Z,33.1
2019-01-19T11:18:37.295Z,33